Time;durP1;ratioP1;P1;durP2;ratioP2;P2;SDS_P1;SDS_P2;PMS_P1;PMS_P2;Temp;Humidity;BMP_temperature;BMP_pressure;BME280_temperature;BME280_humidity;BME280_pressure;Samples;Min_cycle;Max_cycle;Signal;HPM_P1;HPM_P2
2023/09/16 00:00:34;;;;;;;5.53;3.60;;;20.60;1.00;;;;;;5016570;28;20173;-80
2023/09/16 00:03:01;;;;;;;7.77;4.20;;;20.60;1.00;;;;;;5014892;28;20168;-84
2023/09/16 00:05:27;;;;;;;6.33;4.50;;;20.50;1.00;;;;;;5015507;28;20183;-83
2023/09/16 00:07:53;;;;;;;8.93;4.43;;;20.50;1.00;;;;;;5015896;28;20173;-82
2023/09/16 00:10:19;;;;;;;7.00;4.37;;;20.50;1.00;;;;;;5015697;28;20163;-81
2023/09/16 00:12:45;;;;;;;5.07;3.90;;;20.50;1.00;;;;;;5016193;28;20197;-82
2023/09/16 00:15:10;;;;;;;5.57;4.07;;;20.50;1.00;;;;;;5013675;28;20183;-81
2023/09/16 00:17:36;;;;;;;6.93;4.23;;;20.50;1.00;;;;;;5014805;28;20174;-82
2023/09/16 00:20:15;;;;;;;6.27;3.93;;;20.60;1.00;;;;;;5018889;28;20175;-80
2023/09/16 00:22:43;;;;;;;6.83;4.20;;;20.60;1.00;;;;;;5015857;28;20166;-81
2023/09/16 00:25:10;;;;;;;5.70;4.03;;;20.60;1.00;;;;;;5014482;28;20233;-81
2023/09/16 00:27:39;;;;;;;6.17;3.87;;;20.60;1.00;;;;;;5013952;28;20172;-81
2023/09/16 00:30:06;;;;;;;5.00;4.03;;;20.60;1.00;;;;;;5014371;28;20161;-78
2023/09/16 00:32:32;;;;;;;5.60;3.93;;;20.60;1.00;;;;;;5014748;28;20550;-82
2023/09/16 00:34:58;;;;;;;6.50;4.10;;;20.60;1.00;;;;;;5014581;28;20159;-80
2023/09/16 00:37:24;;;;;;;6.03;3.83;;;20.60;1.00;;;;;;5013319;28;20193;-81
2023/09/16 00:39:50;;;;;;;6.00;4.13;;;20.60;1.00;;;;;;5014075;28;20182;-83
2023/09/16 00:42:17;;;;;;;6.33;3.70;;;20.60;1.00;;;;;;5014439;28;20185;-81
2023/09/16 00:44:43;;;;;;;4.70;4.10;;;20.50;1.00;;;;;;5014334;28;20245;-80
2023/09/16 00:47:10;;;;;;;7.70;4.80;;;20.50;1.00;;;;;;5013149;28;20198;-80
2023/09/16 00:49:36;;;;;;;7.80;4.73;;;20.30;1.00;;;;;;5013353;28;20181;-82
2023/09/16 00:52:02;;;;;;;8.17;4.43;;;20.00;1.00;;;;;;5013231;28;20527;-80
2023/09/16 00:54:29;;;;;;;7.93;4.97;;;20.00;1.00;;;;;;5013796;28;20198;-82
2023/09/16 00:56:56;;;;;;;7.10;4.87;;;20.10;1.00;;;;;;5019859;28;20179;-78
2023/09/16 00:59:23;;;;;;;7.00;4.50;;;20.10;1.00;;;;;;5024354;28;20229;-83
2023/09/16 01:01:50;;;;;;;6.77;4.73;;;20.30;1.00;;;;;;5014296;28;20182;-83
2023/09/16 01:04:17;;;;;;;8.70;5.60;;;20.30;1.00;;;;;;5014460;28;20173;-81
2023/09/16 01:06:47;;;;;;;9.53;5.00;;;20.40;1.00;;;;;;5013408;28;20174;-82
2023/09/16 01:09:16;;;;;;;10.87;5.07;;;20.50;1.00;;;;;;5014541;28;20631;-82
2023/09/16 01:11:42;;;;;;;6.00;5.13;;;20.40;1.00;;;;;;5013628;28;20662;-81
2023/09/16 01:14:11;;;;;;;10.97;4.90;;;20.50;1.00;;;;;;5012783;28;20215;-81
2023/09/16 01:16:39;;;;;;;5.80;4.70;;;20.60;1.00;;;;;;5011977;28;20404;-80
2023/09/16 01:19:36;;;;;;;6.30;4.80;;;20.70;1.00;;;;;;5013239;28;20177;-80
2023/09/16 01:22:02;;;;;;;7.30;4.07;;;20.80;1.00;;;;;;4987818;28;20248;-79
2023/09/16 01:24:28;;;;;;;7.57;4.83;;;20.60;1.00;;;;;;5020144;28;20175;-82
2023/09/16 01:26:54;;;;;;;6.67;5.13;;;20.50;1.00;;;;;;5013889;28;20678;-86
2023/09/16 01:29:22;;;;;;;8.93;6.37;;;20.40;1.00;;;;;;5017342;28;20183;-81
2023/09/16 01:31:48;;;;;;;12.83;9.23;;;20.20;1.00;;;;;;5016800;28;20853;-81
2023/09/16 01:34:49;;;;;;;11.33;9.47;;;20.00;1.00;;;;;;5014147;28;20182;-80
2023/09/16 01:37:21;;;;;;;12.73;8.43;;;19.70;1.00;;;;;;5016668;28;20176;-78
2023/09/16 01:39:53;;;;;;;11.73;7.70;;;19.60;1.00;;;;;;5016118;28;20277;-79
2023/09/16 01:42:20;;;;;;;10.53;7.20;;;19.50;1.00;;;;;;5015912;28;20544;-80
2023/09/16 01:44:46;;;;;;;8.83;6.73;;;19.40;1.00;;;;;;5015281;28;20894;-79
2023/09/16 01:47:11;;;;;;;8.67;6.33;;;19.20;1.00;;;;;;5015707;28;20171;-78
2023/09/16 01:49:37;;;;;;;8.47;6.60;;;19.20;1.00;;;;;;5018489;28;20225;-79
2023/09/16 01:52:03;;;;;;;10.67;6.90;;;19.10;1.00;;;;;;5019658;28;20223;-79
2023/09/16 01:54:29;;;;;;;8.87;6.40;;;19.20;1.00;;;;;;5020269;28;20202;-78
2023/09/16 01:56:54;;;;;;;11.87;6.27;;;19.20;1.00;;;;;;5023198;28;20634;-78
2023/09/16 01:59:20;;;;;;;8.33;5.67;;;19.10;1.00;;;;;;5027961;28;20277;-79
2023/09/16 02:01:46;;;;;;;9.20;5.73;;;18.90;1.00;;;;;;5032180;28;20173;-78
2023/09/16 02:04:12;;;;;;;8.17;6.10;;;18.90;1.00;;;;;;5032870;28;20162;-79
2023/09/16 02:06:41;;;;;;;10.60;5.60;;;18.80;1.00;;;;;;5034343;28;20174;-78
2023/09/16 02:09:09;;;;;;;9.47;6.13;;;18.80;1.00;;;;;;5031849;28;20606;-78
2023/09/16 02:11:36;;;;;;;7.63;5.73;;;18.70;1.00;;;;;;5021777;28;20196;-79
2023/09/16 02:14:04;;;;;;;8.40;5.80;;;18.60;1.00;;;;;;5019331;28;20213;-79
2023/09/16 02:16:33;;;;;;;11.60;6.00;;;18.50;1.00;;;;;;5017684;28;20259;-79
2023/09/16 02:18:58;;;;;;;8.57;5.67;;;18.40;1.00;;;;;;5016352;28;20179;-79
2023/09/16 02:21:26;;;;;;;8.20;5.60;;;18.40;1.00;;;;;;5015728;28;20181;-78
2023/09/16 02:23:52;;;;;;;7.57;5.10;;;18.40;1.00;;;;;;5016743;28;20160;-79
2023/09/16 02:26:17;;;;;;;6.47;5.40;;;18.40;1.00;;;;;;5016528;28;20256;-79
2023/09/16 02:28:43;;;;;;;7.07;5.20;;;18.50;1.00;;;;;;5016809;28;20630;-79
2023/09/16 02:31:12;;;;;;;8.00;5.23;;;18.60;1.00;;;;;;5016408;28;20176;-79
2023/09/16 02:33:37;;;;;;;5.93;4.93;;;18.70;1.00;;;;;;5016418;28;20226;-80
2023/09/16 02:36:04;;;;;;;8.23;5.37;;;18.80;1.00;;;;;;5016027;28;20171;-79
2023/09/16 02:38:30;;;;;;;7.67;5.47;;;18.90;1.00;;;;;;5016046;28;20198;-80
2023/09/16 02:40:56;;;;;;;8.50;5.33;;;18.90;1.00;;;;;;5016518;28;20165;-79
2023/09/16 02:43:21;;;;;;;7.33;5.47;;;18.90;1.00;;;;;;5014336;28;20257;-80
2023/09/16 02:45:47;;;;;;;7.13;5.13;;;19.20;1.00;;;;;;5014993;28;20270;-81
2023/09/16 02:48:17;;;;;;;9.10;5.80;;;19.30;1.00;;;;;;5013217;28;20182;-81
2023/09/16 02:50:46;;;;;;;6.97;5.83;;;19.40;1.00;;;;;;5015659;28;20264;-78
2023/09/16 02:53:12;;;;;;;7.67;6.03;;;19.30;1.00;;;;;;5015496;28;20206;-78
2023/09/16 02:55:38;;;;;;;7.43;5.00;;;19.30;1.00;;;;;;5015518;28;20518;-81
2023/09/16 02:58:04;;;;;;;7.33;5.10;;;19.20;1.00;;;;;;5015307;28;20221;-79
2023/09/16 03:00:30;;;;;;;7.23;5.00;;;19.20;1.00;;;;;;5015657;28;20201;-79
2023/09/16 03:02:56;;;;;;;7.37;5.10;;;19.20;1.00;;;;;;5015253;28;20169;-78
2023/09/16 03:05:23;;;;;;;7.67;5.53;;;19.10;1.00;;;;;;5015092;28;20222;-81
2023/09/16 03:07:49;;;;;;;8.07;5.53;;;18.90;1.00;;;;;;5014828;28;20174;-80
2023/09/16 03:10:15;;;;;;;5.87;5.17;;;18.80;1.00;;;;;;5014917;28;20175;-80
2023/09/16 03:12:40;;;;;;;9.00;5.63;;;18.80;1.00;;;;;;5015333;28;20217;-80
2023/09/16 03:15:07;;;;;;;7.10;5.83;;;19.00;1.00;;;;;;5015991;28;20207;-78
2023/09/16 03:17:32;;;;;;;6.87;5.53;;;19.10;1.00;;;;;;5017367;28;20178;-79
2023/09/16 03:19:58;;;;;;;7.53;5.03;;;19.00;1.00;;;;;;5018246;28;20224;-78
2023/09/16 03:22:24;;;;;;;7.53;5.40;;;18.80;1.00;;;;;;5017604;28;20540;-78
2023/09/16 03:24:49;;;;;;;6.83;5.53;;;18.70;1.00;;;;;;5020105;28;20252;-78
2023/09/16 03:27:15;;;;;;;7.43;5.07;;;18.70;1.00;;;;;;5014833;28;20179;-79
2023/09/16 03:29:41;;;;;;;8.37;5.30;;;18.70;1.00;;;;;;5015074;28;20173;-80
2023/09/16 03:32:09;;;;;;;8.10;5.20;;;18.70;1.00;;;;;;5014797;28;20650;-80
2023/09/16 03:34:34;;;;;;;9.00;5.60;;;18.90;1.00;;;;;;5014701;28;20603;-80
2023/09/16 03:37:00;;;;;;;8.07;5.57;;;19.00;1.00;;;;;;5013878;28;20256;-79
2023/09/16 03:39:26;;;;;;;8.17;5.57;;;18.90;1.00;;;;;;5014410;28;20188;-80
2023/09/16 03:41:51;;;;;;;8.80;5.27;;;18.90;1.00;;;;;;5014703;28;20172;-79
2023/09/16 03:44:17;;;;;;;8.90;5.50;;;18.90;1.00;;;;;;5018601;28;20200;-80
2023/09/16 03:46:43;;;;;;;8.37;5.53;;;18.80;1.00;;;;;;5022293;28;20179;-79
2023/09/16 03:49:08;;;;;;;8.17;5.67;;;18.80;1.00;;;;;;5024749;28;20180;-80
2023/09/16 03:51:36;;;;;;;7.57;4.97;;;18.70;1.00;;;;;;5014180;28;20167;-79
2023/09/16 03:54:03;;;;;;;8.47;5.57;;;18.60;1.00;;;;;;5014026;28;20689;-79
2023/09/16 03:56:29;;;;;;;6.70;5.40;;;18.70;1.00;;;;;;5012539;28;20225;-80
2023/09/16 03:58:55;;;;;;;7.20;5.50;;;18.60;1.00;;;;;;5013822;28;20173;-79
2023/09/16 04:01:21;;;;;;;10.33;6.00;;;18.60;1.00;;;;;;5013734;28;20193;-79
2023/09/16 04:03:47;;;;;;;8.80;5.70;;;18.60;1.00;;;;;;5013409;28;20291;-79
2023/09/16 04:06:14;;;;;;;10.73;6.80;;;18.60;1.00;;;;;;5013292;28;20248;-80
2023/09/16 04:08:40;;;;;;;12.17;7.00;;;18.50;1.00;;;;;;5014420;28;20562;-79
2023/09/16 04:11:06;;;;;;;18.57;7.47;;;18.40;1.00;;;;;;5013659;28;20681;-79
2023/09/16 04:13:32;;;;;;;10.87;7.00;;;18.40;1.00;;;;;;5014291;28;20238;-80
2023/09/16 04:15:58;;;;;;;14.20;7.27;;;18.40;1.00;;;;;;5013529;28;20513;-79
2023/09/16 04:18:23;;;;;;;13.97;6.80;;;18.50;1.00;;;;;;5014902;28;20171;-79
2023/09/16 04:20:50;;;;;;;14.90;7.07;;;18.40;1.00;;;;;;5015575;28;20699;-80
2023/09/16 04:23:16;;;;;;;16.63;7.40;;;18.30;1.00;;;;;;5014695;28;20168;-80
2023/09/16 04:25:42;;;;;;;12.23;6.87;;;18.30;1.00;;;;;;5014533;28;20162;-79
2023/09/16 04:28:09;;;;;;;11.03;6.67;;;18.20;1.00;;;;;;5016713;28;20633;-79
2023/09/16 04:30:45;;;;;;;12.00;6.00;;;18.20;1.00;;;;;;5018934;28;20160;-79
2023/09/16 04:33:13;;;;;;;13.67;7.10;;;18.10;1.00;;;;;;5014008;28;20212;-79
2023/09/16 04:35:49;;;;;;;11.07;6.77;;;17.80;3.90;;;;;;5013912;28;20165;-79
2023/09/16 04:38:16;;;;;;;8.77;5.93;;;17.60;12.80;;;;;;5013832;28;20200;-81
2023/09/16 04:40:43;;;;;;;9.73;6.10;;;17.40;19.30;;;;;;5023130;28;20168;-78
2023/09/16 04:43:09;;;;;;;8.47;6.47;;;17.40;23.80;;;;;;5031173;28;20660;-80
2023/09/16 04:45:36;;;;;;;9.27;6.50;;;17.50;26.00;;;;;;5030963;28;20188;-83
2023/09/16 04:48:02;;;;;;;8.33;6.30;;;17.50;24.20;;;;;;5023235;28;20230;-84
2023/09/16 04:50:34;;;;;;;8.63;5.93;;;17.60;22.70;;;;;;5022729;28;20192;-82
2023/09/16 04:52:59;;;;;;;9.93;6.30;;;17.60;21.80;;;;;;5021502;28;20216;-81
2023/09/16 04:55:27;;;;;;;9.10;6.13;;;17.40;24.20;;;;;;5020071;28;20171;-83
2023/09/16 04:57:52;;;;;;;9.13;6.00;;;17.30;29.80;;;;;;5021941;28;20176;-82
2023/09/16 05:00:18;;;;;;;8.50;6.13;;;17.30;32.50;;;;;;5015176;28;20165;-78
2023/09/16 05:02:48;;;;;;;9.43;6.53;;;17.40;30.90;;;;;;5018632;28;20196;-79
2023/09/16 05:05:14;;;;;;;12.70;6.73;;;17.40;30.50;;;;;;5021359;28;20174;-82
2023/09/16 05:07:40;;;;;;;11.83;6.50;;;17.40;29.50;;;;;;5020292;28;20509;-80
2023/09/16 05:10:07;;;;;;;10.07;7.43;;;17.40;30.40;;;;;;5021208;28;20540;-80
2023/09/16 05:12:33;;;;;;;8.47;7.03;;;17.40;32.20;;;;;;5021357;28;20190;-79
2023/09/16 05:14:58;;;;;;;9.50;7.33;;;17.40;31.60;;;;;;5021855;28;20180;-79
2023/09/16 05:17:24;;;;;;;11.20;6.93;;;17.40;30.50;;;;;;5021199;28;20169;-78
2023/09/16 05:19:50;;;;;;;12.37;6.63;;;17.40;28.90;;;;;;5020888;28;20193;-79
2023/09/16 05:22:15;;;;;;;8.83;6.93;;;17.40;30.00;;;;;;5020638;28;20665;-79
2023/09/16 05:24:41;;;;;;;10.50;7.37;;;17.40;29.60;;;;;;5021814;28;20198;-78
2023/09/16 05:27:07;;;;;;;12.27;7.40;;;17.30;30.00;;;;;;5020670;28;20182;-79
2023/09/16 05:29:33;;;;;;;16.47;7.50;;;17.10;36.80;;;;;;5021274;28;20171;-80
2023/09/16 05:31:59;;;;;;;10.80;7.30;;;17.00;46.20;;;;;;5021322;28;20181;-79
2023/09/16 05:34:26;;;;;;;12.07;7.83;;;17.10;49.30;;;;;;5025765;28;20168;-79
2023/09/16 05:36:53;;;;;;;11.97;7.57;;;17.20;44.20;;;;;;5028636;28;20211;-82
2023/09/16 05:39:18;;;;;;;10.57;7.13;;;17.30;38.40;;;;;;5032474;28;20681;-80
2023/09/16 05:41:44;;;;;;;10.33;6.90;;;17.20;34.80;;;;;;5023738;28;20173;-81
2023/09/16 05:44:10;;;;;;;13.53;7.33;;;17.20;36.10;;;;;;5034562;28;20173;-81
2023/09/16 05:46:35;;;;;;;8.90;6.93;;;17.10;37.10;;;;;;5038375;28;20162;-81
2023/09/16 05:49:09;;;;;;;10.67;6.93;;;17.20;34.80;;;;;;5033040;28;20184;-84
2023/09/16 05:51:34;;;;;;;12.27;7.00;;;17.00;35.30;;;;;;5038981;28;20166;-78
2023/09/16 05:54:00;;;;;;;11.40;8.10;;;16.90;38.60;;;;;;5041052;28;20204;-83
2023/09/16 05:56:26;;;;;;;8.17;6.47;;;17.00;41.70;;;;;;5042761;28;20170;-81
2023/09/16 05:58:51;;;;;;;11.33;7.33;;;17.10;37.70;;;;;;5057958;28;20661;-82
2023/09/16 06:01:20;;;;;;;9.87;7.23;;;17.10;34.80;;;;;;5059546;28;20169;-81
2023/09/16 06:03:57;;;;;;;10.70;7.23;;;17.20;34.60;;;;;;5053462;28;20165;-83
2023/09/16 06:06:23;;;;;;;11.07;7.70;;;17.30;32.30;;;;;;5051563;28;20177;-82
2023/09/16 06:08:51;;;;;;;13.97;7.90;;;17.30;30.50;;;;;;5054805;28;20167;-84
2023/09/16 06:11:16;;;;;;;10.23;7.73;;;17.40;27.40;;;;;;5042297;28;20161;-81
2023/09/16 06:13:42;;;;;;;13.50;7.60;;;17.30;28.10;;;;;;5038957;28;20571;-80
2023/09/16 06:16:08;;;;;;;11.87;7.50;;;17.30;28.10;;;;;;5035955;28;20180;-81
2023/09/16 06:18:35;;;;;;;10.60;7.77;;;17.30;28.30;;;;;;5035480;28;20189;-80
2023/09/16 06:21:02;;;;;;;10.13;8.07;;;17.20;29.80;;;;;;5036036;28;20168;-81
2023/09/16 06:23:27;;;;;;;11.43;8.03;;;17.40;30.90;;;;;;5036065;28;20182;-81
2023/09/16 06:25:53;;;;;;;10.13;7.27;;;17.40;27.50;;;;;;5035985;28;20180;-80
2023/09/16 06:28:20;;;;;;;12.30;9.43;;;17.50;25.20;;;;;;5034558;28;20251;-79
2023/09/16 06:30:45;;;;;;;12.23;8.57;;;17.50;22.70;;;;;;5033122;28;20323;-79
2023/09/16 06:33:12;;;;;;;11.67;8.73;;;17.60;15.90;;;;;;5024927;28;20727;-79
2023/09/16 06:35:38;;;;;;;9.83;8.17;;;17.80;7.20;;;;;;5018540;28;20183;-81
2023/09/16 06:38:04;;;;;;;12.90;8.27;;;17.80;5.90;;;;;;5015384;28;20301;-80
2023/09/16 06:40:29;;;;;;;11.07;8.10;;;17.80;4.20;;;;;;5034975;28;20535;-80
2023/09/16 06:42:55;;;;;;;9.57;7.80;;;17.80;1.00;;;;;;5035967;28;20248;-82
2023/09/16 06:45:21;;;;;;;13.80;8.40;;;17.80;3.70;;;;;;5035917;28;20175;-81
2023/09/16 06:47:46;;;;;;;10.23;8.17;;;17.90;2.20;;;;;;5025392;28;20188;-79
2023/09/16 06:50:12;;;;;;;11.30;8.50;;;17.90;1.00;;;;;;5024392;28;20182;-81
2023/09/16 06:52:38;;;;;;;12.63;8.17;;;17.90;1.00;;;;;;5026181;28;20194;-80
2023/09/16 06:55:07;;;;;;;11.40;8.20;;;17.90;1.00;;;;;;5024191;28;20540;-79
2023/09/16 06:57:32;;;;;;;10.27;8.33;;;17.90;1.00;;;;;;5022892;28;20168;-81
2023/09/16 06:59:58;;;;;;;11.50;8.50;;;18.00;1.00;;;;;;5036547;28;20226;-81
2023/09/16 07:02:25;;;;;;;12.87;8.40;;;18.20;1.00;;;;;;5031569;28;20630;-84
2023/09/16 07:04:51;;;;;;;12.33;8.10;;;18.10;1.00;;;;;;5016829;28;20193;-84
2023/09/16 07:07:17;;;;;;;9.77;7.97;;;18.20;1.00;;;;;;5017677;28;20179;-85
2023/09/16 07:09:43;;;;;;;10.30;8.53;;;18.30;1.00;;;;;;5016236;28;20695;-83
2023/09/16 07:12:09;;;;;;;12.70;9.20;;;18.40;1.00;;;;;;5016624;28;20202;-84
2023/09/16 07:14:38;;;;;;;11.00;8.23;;;18.50;1.00;;;;;;5016766;28;20251;-85
2023/09/16 07:17:04;;;;;;;11.00;8.40;;;18.70;1.00;;;;;;5017420;28;20180;-83
2023/09/16 07:19:32;;;;;;;13.63;8.33;;;18.80;1.00;;;;;;5021060;28;20187;-84
2023/09/16 07:21:58;;;;;;;16.30;9.10;;;18.90;1.00;;;;;;5018221;28;20173;-83
2023/09/16 07:24:24;;;;;;;14.70;8.27;;;19.10;1.00;;;;;;5016934;28;20170;-84
2023/09/16 07:26:50;;;;;;;12.43;9.00;;;19.10;1.00;;;;;;5017342;28;20584;-82
2023/09/16 07:29:18;;;;;;;13.07;9.00;;;19.20;1.00;;;;;;5017445;28;20170;-84
2023/09/16 07:31:44;;;;;;;13.20;8.20;;;19.20;1.00;;;;;;5017179;28;20782;-82
2023/09/16 07:34:09;;;;;;;13.13;8.30;;;19.30;1.00;;;;;;5015821;28;20308;-80
2023/09/16 07:36:36;;;;;;;11.97;8.83;;;19.40;1.00;;;;;;5040969;28;20160;-84
2023/09/16 07:39:02;;;;;;;13.17;9.03;;;19.50;1.00;;;;;;5037471;28;20200;-86
2023/09/16 07:41:28;;;;;;;9.93;8.70;;;19.60;1.00;;;;;;5029329;28;20263;-85
2023/09/16 07:43:55;;;;;;;9.23;8.23;;;19.70;1.00;;;;;;5021510;28;20243;-82
2023/09/16 07:46:22;;;;;;;13.57;10.10;;;19.80;1.00;;;;;;5034354;28;20255;-83
2023/09/16 07:48:48;;;;;;;12.70;9.17;;;19.90;1.00;;;;;;5036151;28;20195;-83
2023/09/16 07:51:16;;;;;;;12.57;8.77;;;20.00;1.00;;;;;;5035697;28;20173;-83
2023/09/16 07:53:42;;;;;;;11.93;8.87;;;20.20;1.00;;;;;;5039196;28;20232;-84
2023/09/16 07:56:10;;;;;;;12.83;7.97;;;20.20;1.00;;;;;;5039997;28;20196;-83
2023/09/16 07:58:36;;;;;;;13.10;8.50;;;20.20;1.00;;;;;;5034925;28;20173;-82
2023/09/16 08:01:01;;;;;;;12.63;8.13;;;20.30;1.00;;;;;;5047297;28;20226;-85
2023/09/16 08:03:27;;;;;;;9.90;7.37;;;20.30;1.00;;;;;;5036745;28;20194;-85
2023/09/16 08:05:54;;;;;;;10.53;8.93;;;20.40;1.00;;;;;;5030373;28;20482;-86
2023/09/16 08:08:20;;;;;;;13.93;9.30;;;20.50;1.00;;;;;;5027880;28;20642;-88
2023/09/16 08:10:54;;;;;;;9.43;7.93;;;20.50;1.00;;;;;;5010993;28;20182;-85
2023/09/16 08:13:19;;;;;;;12.27;8.50;;;20.60;1.00;;;;;;5021283;28;20868;-84
2023/09/16 08:15:45;;;;;;;10.43;8.27;;;20.60;1.00;;;;;;5021426;28;20184;-83
2023/09/16 08:18:11;;;;;;;11.23;7.97;;;20.70;1.00;;;;;;5024282;28;20182;-84
2023/09/16 08:20:37;;;;;;;11.27;7.70;;;20.90;1.00;;;;;;5020113;28;20272;-85
2023/09/16 08:23:02;;;;;;;12.83;8.60;;;20.90;1.00;;;;;;5027385;28;20495;-85
2023/09/16 08:25:28;;;;;;;11.93;7.97;;;21.10;1.00;;;;;;5020305;28;20578;-82
2023/09/16 08:27:54;;;;;;;10.87;8.20;;;21.10;1.00;;;;;;5021473;28;20883;-87
2023/09/16 08:30:21;;;;;;;11.67;8.50;;;21.20;1.00;;;;;;5028847;28;20186;-84
2023/09/16 08:32:47;;;;;;;10.77;8.27;;;21.20;1.00;;;;;;5022412;28;20254;-85
2023/09/16 08:35:13;;;;;;;11.40;8.77;;;21.20;1.00;;;;;;5017406;28;20274;-86
2023/09/16 08:37:39;;;;;;;11.20;8.00;;;21.20;1.00;;;;;;5020914;28;20250;-86
2023/09/16 08:40:06;;;;;;;11.37;7.90;;;21.30;1.00;;;;;;5022764;28;20189;-87
2023/09/16 08:42:46;;;;;;;10.00;7.67;;;21.40;1.00;;;;;;5019436;28;20216;-86
2023/09/16 08:45:15;;;;;;;10.73;7.70;;;21.40;1.00;;;;;;5019436;28;20182;-85
2023/09/16 08:47:47;;;;;;;13.57;7.30;;;21.50;1.00;;;;;;5026066;28;20180;-86
2023/09/16 08:50:17;;;;;;;10.53;7.83;;;21.60;1.00;;;;;;5016954;28;20560;-85
2023/09/16 08:52:49;;;;;;;13.73;7.93;;;21.70;1.00;;;;;;5019646;28;20210;-85
2023/09/16 08:55:15;;;;;;;10.20;7.60;;;21.80;1.00;;;;;;5029255;28;20182;-85
2023/09/16 08:57:50;;;;;;;9.10;7.30;;;21.90;1.00;;;;;;5009124;28;20543;-85
2023/09/16 09:00:18;;;;;;;10.13;8.00;;;22.00;1.00;;;;;;5011008;28;20185;-85
2023/09/16 09:02:51;;;;;;;11.13;7.77;;;22.10;1.00;;;;;;5014452;28;20219;-86
2023/09/16 09:05:18;;;;;;;9.80;7.63;;;22.10;1.00;;;;;;5021310;28;20180;-85
2023/09/16 09:07:44;;;;;;;11.13;6.90;;;22.20;1.00;;;;;;5020849;28;20196;-84
2023/09/16 09:10:12;;;;;;;9.93;6.90;;;22.30;1.00;;;;;;5020922;28;20186;-84
2023/09/16 09:12:42;;;;;;;11.40;6.80;;;22.40;1.00;;;;;;5023573;28;20556;-85
2023/09/16 09:15:16;;;;;;;11.37;6.87;;;22.40;1.00;;;;;;5017235;28;20330;-86
2023/09/16 09:17:45;;;;;;;16.97;7.30;;;22.40;1.00;;;;;;5023996;28;20183;-84
2023/09/16 09:20:17;;;;;;;11.13;6.70;;;22.50;1.00;;;;;;5020255;28;20182;-85
2023/09/16 09:22:45;;;;;;;7.97;6.77;;;22.60;1.00;;;;;;5024136;28;20184;-85
2023/09/16 09:25:11;;;;;;;11.73;6.93;;;22.50;99.90;;;;;;5023289;28;20177;-85
2023/09/16 09:27:37;;;;;;;9.43;6.50;;;22.60;1.00;;;;;;5022918;28;20644;-85
2023/09/16 09:30:04;;;;;;;9.97;6.67;;;22.70;99.90;;;;;;5029910;28;20243;-85
2023/09/16 09:32:31;;;;;;;8.73;6.67;;;22.80;99.90;;;;;;5040028;28;20209;-84
2023/09/16 09:35:06;;;;;;;9.77;6.60;;;23.00;99.90;;;;;;5034711;28;20203;-84
2023/09/16 09:37:33;;;;;;;11.43;6.77;;;23.10;99.90;;;;;;5044951;28;20178;-84
2023/09/16 09:40:06;;;;;;;9.13;6.47;;;23.10;99.90;;;;;;5039968;28;20209;-86
2023/09/16 09:42:32;;;;;;;8.07;6.30;;;23.20;99.90;;;;;;5033340;28;20177;-86
2023/09/16 09:45:04;;;;;;;9.50;6.40;;;23.40;99.90;;;;;;5027199;28;20174;-85
2023/09/16 09:47:40;;;;;;;9.63;5.60;;;23.50;99.90;;;;;;5029973;28;20669;-84
2023/09/16 09:50:11;;;;;;;9.80;5.60;;;23.40;99.90;;;;;;5029252;28;20182;-85
2023/09/16 09:52:37;;;;;;;10.47;6.50;;;23.40;99.90;;;;;;5033043;28;20197;-85
2023/09/16 09:55:03;;;;;;;9.43;5.50;;;23.40;99.90;;;;;;5027046;28;20276;-83
2023/09/16 09:57:29;;;;;;;10.50;4.77;;;23.40;99.90;;;;;;5028613;28;20181;-84
2023/09/16 09:59:56;;;;;;;7.10;5.10;;;23.50;99.90;;;;;;5026860;28;20195;-84
2023/09/16 10:02:25;;;;;;;6.90;4.57;;;23.70;99.90;;;;;;5030669;28;20251;-84
2023/09/16 10:05:01;;;;;;;6.90;4.83;;;23.90;99.90;;;;;;5021966;28;20780;-85
2023/09/16 10:07:28;;;;;;;7.73;4.57;;;23.90;99.90;;;;;;5025184;28;20232;-84
2023/09/16 10:09:54;;;;;;;6.00;4.50;;;23.80;99.90;;;;;;5026870;28;20173;-86
2023/09/16 10:12:21;;;;;;;7.20;4.60;;;23.90;99.90;;;;;;5025806;28;20180;-84
2023/09/16 10:14:54;;;;;;;6.97;4.60;;;24.00;99.90;;;;;;5022625;28;20188;-81
2023/09/16 10:17:22;;;;;;;6.03;4.17;;;24.00;95.10;;;;;;5018022;28;20195;-82
2023/09/16 10:19:47;;;;;;;6.23;4.47;;;24.10;99.90;;;;;;5023116;28;20219;-83
2023/09/16 10:22:15;;;;;;;11.60;5.13;;;24.20;91.40;;;;;;5014690;28;20257;-82
2023/09/16 10:24:41;;;;;;;6.23;4.47;;;24.30;90.00;;;;;;5022802;28;20176;-82
2023/09/16 10:27:18;;;;;;;6.83;4.40;;;24.30;16.90;;;;;;5023928;28;20269;-81
2023/09/16 10:29:46;;;;;;;6.40;4.50;;;24.20;24.00;;;;;;5022381;28;20177;-82
2023/09/16 10:32:13;;;;;;;10.23;4.73;;;24.20;42.50;;;;;;5020154;28;20163;-80
2023/09/16 10:34:43;;;;;;;6.07;4.23;;;24.20;44.80;;;;;;5021085;28;20232;-81
2023/09/16 10:37:13;;;;;;;8.87;4.63;;;24.40;21.60;;;;;;5025501;28;20196;-82
2023/09/16 10:39:39;;;;;;;6.63;4.30;;;24.60;1.00;;;;;;5024173;28;20182;-81
2023/09/16 10:42:06;;;;;;;5.87;4.57;;;24.70;1.00;;;;;;5024631;28;20253;-81
2023/09/16 10:44:33;;;;;;;7.50;4.40;;;24.70;1.00;;;;;;5005012;28;20182;-82
2023/09/16 10:47:04;;;;;;;6.83;4.70;;;24.70;1.00;;;;;;5025199;28;20169;-82
2023/09/16 10:49:31;;;;;;;7.77;5.00;;;24.90;1.00;;;;;;5022120;28;20197;-82
2023/09/16 10:52:03;;;;;;;6.53;4.60;;;24.90;1.00;;;;;;5020844;28;20266;-82
2023/09/16 10:54:45;;;;;;;6.53;4.97;;;24.80;1.00;;;;;;5017214;28;20268;-82
2023/09/16 10:57:20;;;;;;;7.43;4.70;;;25.00;1.00;;;;;;5027779;28;20184;-82
2023/09/16 10:59:51;;;;;;;7.63;5.47;;;25.00;1.00;;;;;;5038082;28;20166;-81
2023/09/16 11:02:36;;;;;;;6.80;4.90;;;25.00;1.00;;;;;;5031582;28;20179;-81
2023/09/16 11:05:02;;;;;;;5.37;4.47;;;24.90;10.20;;;;;;5024647;28;20576;-82
2023/09/16 11:07:28;;;;;;;5.87;5.10;;;24.90;1.00;;;;;;5026699;28;20591;-82
2023/09/16 11:09:58;;;;;;;6.07;4.43;;;25.00;1.00;;;;;;5020631;28;20253;-82
2023/09/16 11:12:26;;;;;;;6.13;4.90;;;24.90;1.00;;;;;;5022442;28;20158;-83
2023/09/16 11:14:51;;;;;;;6.97;5.13;;;24.80;19.90;;;;;;5021543;28;20178;-82
2023/09/16 11:17:18;;;;;;;8.20;5.00;;;24.90;1.00;;;;;;5026772;28;20179;-83
2023/09/16 11:19:45;;;;;;;8.93;4.80;;;25.10;1.00;;;;;;5020646;28;20186;-84
2023/09/16 11:22:11;;;;;;;7.03;4.80;;;25.20;1.00;;;;;;5039506;28;20171;-83
2023/09/16 11:24:37;;;;;;;7.67;5.10;;;25.20;1.00;;;;;;5037736;28;20171;-83
2023/09/16 11:27:04;;;;;;;7.50;5.20;;;25.00;1.00;;;;;;5028269;28;20182;-84
2023/09/16 11:29:32;;;;;;;8.77;5.07;;;25.00;25.30;;;;;;5033283;28;20181;-84
2023/09/16 11:32:00;;;;;;;5.67;4.80;;;25.10;17.40;;;;;;5027904;28;20221;-82
2023/09/16 11:34:28;;;;;;;7.90;5.37;;;25.20;1.00;;;;;;5019172;28;20732;-83
2023/09/16 11:37:00;;;;;;;5.70;4.50;;;25.20;30.90;;;;;;5018210;28;20213;-82
2023/09/16 11:39:42;;;;;;;6.93;4.70;;;25.20;1.00;;;;;;5022112;28;20193;-83
2023/09/16 11:42:08;;;;;;;7.10;5.03;;;25.20;1.00;;;;;;5023340;28;20212;-83
2023/09/16 11:44:38;;;;;;;8.10;4.83;;;25.20;1.00;;;;;;5017817;28;20174;-81
2023/09/16 11:47:04;;;;;;;7.97;5.03;;;25.20;1.00;;;;;;5023976;28;20554;-80
2023/09/16 11:49:34;;;;;;;4.90;4.40;;;25.40;1.00;;;;;;5025163;28;20291;-83
2023/09/16 11:52:04;;;;;;;6.27;4.60;;;25.40;1.00;;;;;;5025353;28;20172;-81
2023/09/16 11:54:29;;;;;;;8.60;4.73;;;25.50;1.00;;;;;;5027683;28;20213;-82
2023/09/16 11:56:58;;;;;;;6.33;4.73;;;25.50;1.00;;;;;;5036603;28;20169;-82
2023/09/16 11:59:24;;;;;;;6.87;5.07;;;25.60;1.00;;;;;;5016905;28;20227;-83
2023/09/16 12:01:50;;;;;;;6.70;5.13;;;25.60;1.00;;;;;;5028716;28;20182;-84
2023/09/16 12:04:17;;;;;;;6.20;4.07;;;25.60;1.00;;;;;;5019743;28;20317;-83
2023/09/16 12:06:44;;;;;;;5.77;4.80;;;25.50;1.00;;;;;;5015829;28;20638;-81
2023/09/16 12:09:16;;;;;;;6.70;4.87;;;25.60;1.00;;;;;;5016367;28;20213;-82
2023/09/16 12:11:42;;;;;;;5.80;4.60;;;25.70;1.00;;;;;;5032965;28;20202;-82
2023/09/16 12:14:07;;;;;;;7.67;4.80;;;25.80;1.00;;;;;;5034200;28;20249;-84
2023/09/16 12:16:36;;;;;;;10.03;4.83;;;25.80;1.00;;;;;;5035927;28;20681;-83
2023/09/16 12:19:02;;;;;;;7.87;4.70;;;25.80;1.00;;;;;;5032641;28;20209;-85
2023/09/16 12:21:28;;;;;;;7.03;4.47;;;25.90;1.00;;;;;;5023249;28;20220;-83
2023/09/16 12:23:54;;;;;;;4.73;4.23;;;25.90;1.00;;;;;;5037206;28;20178;-84
2023/09/16 12:26:20;;;;;;;5.90;4.10;;;26.00;1.00;;;;;;5037554;28;20173;-84
2023/09/16 12:28:46;;;;;;;8.03;4.90;;;26.10;1.00;;;;;;5038388;28;20542;-83
2023/09/16 12:31:12;;;;;;;6.10;4.80;;;26.20;1.00;;;;;;5037915;28;20264;-83
2023/09/16 12:33:53;;;;;;;7.27;5.13;;;26.10;1.00;;;;;;5037439;28;20209;-82
2023/09/16 12:36:25;;;;;;;9.07;5.27;;;25.80;1.00;;;;;;5037812;28;20150;-83
2023/09/16 12:38:53;;;;;;;6.20;4.50;;;25.90;1.00;;;;;;5037962;28;20181;-82
2023/09/16 12:41:22;;;;;;;6.70;4.67;;;25.90;1.00;;;;;;5025074;28;20166;-83
2023/09/16 12:43:49;;;;;;;5.60;4.53;;;25.90;1.00;;;;;;5019640;28;20180;-82
2023/09/16 12:46:17;;;;;;;7.57;4.90;;;26.00;1.00;;;;;;5019139;28;20201;-83
2023/09/16 12:48:47;;;;;;;7.87;4.80;;;26.10;1.00;;;;;;5038383;28;20209;-81
2023/09/16 12:51:14;;;;;;;10.80;5.27;;;26.30;1.00;;;;;;5040613;28;20241;-83